createdAt,value
2018-12-10T00:00:43.215Z,5.80
2018-12-10T00:03:16.830Z,5.80
2018-12-10T00:05:45.073Z,5.70
2018-12-10T00:08:13.349Z,5.70
2018-12-10T00:10:42.168Z,5.70
2018-12-10T00:13:10.414Z,5.70
2018-12-10T00:15:38.846Z,5.70
2018-12-10T00:18:07.154Z,5.60
2018-12-10T00:20:35.501Z,5.60
2018-12-10T00:23:03.753Z,5.60
2018-12-10T00:25:31.974Z,5.60
2018-12-10T00:28:00.257Z,5.60
2018-12-10T00:30:28.614Z,5.50
2018-12-10T00:32:59.883Z,5.40
2018-12-10T00:35:28.174Z,5.40
2018-12-10T00:37:56.964Z,5.30
2018-12-10T00:40:25.202Z,5.30
2018-12-10T00:42:53.501Z,5.30
2018-12-10T00:45:21.794Z,5.30
2018-12-10T00:47:50.004Z,5.30
2018-12-10T00:50:18.282Z,5.30
2018-12-10T00:52:46.626Z,5.20
2018-12-10T00:55:14.955Z,5.20
2018-12-10T00:57:43.222Z,5.20
2018-12-10T01:00:11.709Z,5.20
2018-12-10T01:02:39.992Z,5.20
2018-12-10T01:05:09.998Z,5.20
2018-12-10T01:07:38.397Z,5.20
2018-12-10T01:10:07.296Z,5.20
2018-12-10T01:12:35.599Z,5.20
2018-12-10T01:15:03.997Z,5.20
2018-12-10T01:17:32.429Z,5.10
2018-12-10T01:20:00.803Z,5.10
2018-12-10T01:22:29.249Z,5.10
2018-12-10T01:24:57.656Z,5.10
2018-12-10T01:27:25.917Z,5.10
2018-12-10T01:29:54.190Z,5.10
2018-12-10T01:32:22.414Z,5.10
2018-12-10T01:34:50.656Z,5.10
2018-12-10T01:37:19.410Z,5.10
2018-12-10T01:39:47.675Z,5.10
2018-12-10T01:42:16.011Z,5.00
2018-12-10T01:44:44.324Z,5.00
2018-12-10T01:47:12.936Z,5.00
2018-12-10T01:49:41.217Z,5.00
2018-12-10T01:52:09.498Z,4.90
2018-12-10T01:54:37.763Z,4.80
2018-12-10T01:57:06.182Z,4.80
2018-12-10T01:59:34.424Z,4.80
2018-12-10T02:02:02.781Z,4.70
2018-12-10T02:04:31.136Z,4.60
2018-12-10T02:06:59.935Z,4.60
2018-12-10T02:09:28.494Z,4.70
2018-12-10T02:11:56.851Z,4.70
2018-12-10T02:14:25.101Z,4.70
2018-12-10T02:16:54.096Z,4.70
2018-12-10T02:19:22.418Z,4.70
2018-12-10T02:21:50.963Z,4.70
2018-12-10T02:24:19.215Z,4.70
2018-12-10T02:26:47.438Z,4.70
2018-12-10T02:29:22.693Z,4.70
2018-12-10T02:31:50.984Z,4.70
2018-12-10T02:34:19.231Z,4.70
2018-12-10T02:36:47.453Z,4.70
2018-12-10T02:39:15.917Z,4.70
2018-12-10T02:41:44.265Z,4.70
2018-12-10T02:44:12.625Z,4.70
2018-12-10T02:46:40.904Z,4.70
2018-12-10T02:49:09.157Z,4.70
2018-12-10T02:51:37.520Z,4.70
2018-12-10T02:54:05.762Z,4.70
2018-12-10T02:56:34.084Z,4.70
2018-12-10T02:59:02.365Z,4.70
2018-12-10T03:01:30.672Z,4.70
2018-12-10T03:03:58.968Z,4.70
2018-12-10T03:06:27.220Z,4.70
2018-12-10T03:08:55.518Z,4.70
2018-12-10T03:11:23.871Z,4.80
2018-12-10T03:13:52.118Z,4.70
2018-12-10T03:16:20.428Z,4.80
2018-12-10T03:18:48.629Z,4.80
2018-12-10T03:21:16.861Z,4.70
2018-12-10T03:23:45.252Z,4.70
2018-12-10T03:26:13.484Z,4.70
2018-12-10T03:28:41.753Z,4.70
2018-12-10T03:31:10.055Z,4.70
2018-12-10T03:33:38.360Z,4.70
2018-12-10T03:36:06.790Z,4.70
2018-12-10T03:38:35.277Z,4.70
2018-12-10T03:41:03.780Z,4.70
2018-12-10T03:43:32.157Z,4.60
2018-12-10T03:46:00.862Z,4.60
2018-12-10T03:48:29.634Z,4.60
2018-12-10T03:50:58.289Z,4.70
2018-12-10T03:53:26.622Z,4.70
2018-12-10T03:55:54.852Z,4.60
2018-12-10T03:58:24.064Z,4.60
2018-12-10T04:00:52.385Z,4.70
2018-12-10T04:03:20.702Z,4.70
2018-12-10T04:05:48.962Z,4.70
2018-12-10T04:08:17.911Z,4.60
2018-12-10T04:10:46.609Z,4.60
2018-12-10T04:13:14.953Z,4.60
2018-12-10T04:15:43.584Z,4.60
2018-12-10T04:18:11.810Z,4.70
2018-12-10T04:20:40.050Z,4.60
2018-12-10T04:23:08.351Z,4.60
2018-12-10T04:25:37.077Z,4.60
2018-12-10T04:28:05.337Z,4.60
2018-12-10T04:30:34.118Z,4.60
2018-12-10T04:33:02.595Z,4.60
2018-12-10T04:35:30.864Z,4.60
2018-12-10T04:37:59.409Z,4.50
2018-12-10T04:40:27.959Z,4.50
2018-12-10T04:42:56.212Z,4.50
2018-12-10T04:45:24.704Z,4.50
2018-12-10T04:47:53.090Z,4.60
2018-12-10T04:50:21.297Z,4.50
2018-12-10T04:52:49.648Z,4.60
2018-12-10T04:55:18.014Z,4.60
2018-12-10T04:57:47.669Z,4.60
2018-12-10T05:00:16.281Z,4.60
2018-12-10T05:02:44.558Z,4.50
2018-12-10T05:05:12.911Z,4.60
2018-12-10T05:07:41.183Z,4.60
2018-12-10T05:10:09.477Z,4.60
2018-12-10T05:12:38.864Z,4.60
2018-12-10T05:15:07.406Z,4.50
2018-12-10T05:17:35.704Z,4.50
2018-12-10T05:20:04.297Z,4.50
2018-12-10T05:22:32.629Z,4.60
2018-12-10T05:25:01.035Z,4.60
2018-12-10T05:27:29.328Z,4.50
2018-12-10T05:29:58.081Z,4.50
2018-12-10T05:32:26.501Z,4.50
2018-12-10T05:34:54.899Z,4.50
2018-12-10T05:37:23.202Z,4.50
2018-12-10T05:39:51.476Z,4.50
2018-12-10T05:42:19.966Z,4.50
2018-12-10T05:44:48.314Z,4.50
2018-12-10T05:47:16.528Z,4.50
2018-12-10T05:49:46.156Z,4.50
2018-12-10T05:52:14.498Z,4.60
2018-12-10T05:54:42.717Z,4.60
2018-12-10T05:57:11.047Z,4.50
2018-12-10T05:59:39.364Z,4.50
2018-12-10T06:02:07.990Z,4.50
2018-12-10T06:04:36.257Z,4.50
2018-12-10T06:07:04.604Z,4.50
2018-12-10T06:09:32.931Z,4.50
2018-12-10T06:12:01.271Z,4.50
2018-12-10T06:14:29.571Z,4.50
2018-12-10T06:16:58.273Z,4.50
2018-12-10T06:19:26.600Z,4.50
2018-12-10T06:21:55.081Z,4.50
2018-12-10T06:24:23.302Z,4.50
2018-12-10T06:26:51.893Z,4.50
2018-12-10T06:29:20.210Z,4.50
2018-12-10T06:31:48.851Z,4.50
2018-12-10T06:34:17.208Z,4.50
2018-12-10T06:36:45.512Z,4.50
2018-12-10T06:39:13.822Z,4.40
2018-12-10T06:41:42.432Z,4.40
2018-12-10T06:44:10.746Z,4.50
2018-12-10T06:46:39.052Z,4.50
2018-12-10T06:49:07.293Z,4.50
2018-12-10T06:51:35.633Z,4.40
2018-12-10T06:54:04.216Z,4.40
2018-12-10T06:56:32.584Z,4.30
2018-12-10T06:59:00.864Z,4.40
2018-12-10T07:01:29.548Z,4.30
2018-12-10T07:03:57.869Z,4.30
2018-12-10T07:06:26.155Z,4.20
2018-12-10T07:08:54.359Z,4.20
2018-12-10T07:11:22.624Z,4.10
2018-12-10T07:13:50.890Z,4.10
2018-12-10T07:16:19.236Z,4.10
2018-12-10T07:18:47.421Z,4.10
2018-12-10T07:21:15.597Z,4.10
2018-12-10T07:23:43.933Z,4.00
2018-12-10T07:26:12.213Z,4.00
2018-12-10T07:28:40.494Z,4.00
2018-12-10T07:31:08.650Z,4.00
2018-12-10T07:33:37.167Z,4.00
2018-12-10T07:36:05.444Z,4.00
2018-12-10T07:38:33.668Z,4.00
2018-12-10T07:41:01.927Z,4.00
2018-12-10T07:43:30.120Z,4.00
2018-12-10T07:45:58.420Z,4.00
2018-12-10T07:48:26.665Z,4.00
2018-12-10T07:50:54.945Z,4.10
2018-12-10T07:53:23.241Z,4.00
2018-12-10T07:55:53.821Z,4.10
2018-12-10T07:58:22.213Z,4.10
2018-12-10T08:00:50.593Z,4.10
2018-12-10T08:03:18.922Z,4.10
2018-12-10T08:05:47.403Z,4.10
2018-12-10T08:08:15.966Z,4.20
2018-12-10T08:10:44.507Z,4.20
2018-12-10T08:13:12.986Z,4.20
2018-12-10T08:15:41.322Z,4.20
2018-12-10T08:18:09.813Z,4.20
2018-12-10T08:20:38.202Z,4.30
2018-12-10T08:23:06.822Z,4.30
2018-12-10T08:25:35.250Z,4.40
2018-12-10T08:28:03.708Z,4.40
2018-12-10T08:30:32.192Z,4.40
2018-12-10T08:33:00.573Z,4.30
2018-12-10T08:35:29.048Z,4.30
2018-12-10T08:37:57.392Z,4.30
2018-12-10T08:40:25.825Z,4.30
2018-12-10T08:42:54.289Z,4.30
2018-12-10T08:45:22.696Z,4.20
2018-12-10T08:47:51.064Z,4.30
2018-12-10T08:50:19.600Z,4.30
2018-12-10T08:52:48.123Z,4.30
2018-12-10T08:55:16.469Z,4.30
2018-12-10T08:57:44.715Z,4.30
2018-12-10T09:00:13.046Z,4.30
2018-12-10T09:02:41.378Z,4.30
2018-12-10T09:05:09.574Z,4.30
2018-12-10T09:07:37.853Z,4.30
2018-12-10T09:10:07.113Z,4.30
2018-12-10T09:12:35.320Z,4.30
2018-12-10T09:15:04.183Z,4.30
2018-12-10T09:17:32.458Z,4.30
2018-12-10T09:20:00.729Z,4.40
2018-12-10T09:22:29.009Z,4.40
2018-12-10T09:24:57.327Z,4.30
2018-12-10T09:27:25.595Z,4.40
2018-12-10T09:29:53.945Z,4.50
2018-12-10T09:32:22.354Z,4.60
2018-12-10T09:34:50.730Z,4.60
2018-12-10T09:37:19.182Z,4.50
2018-12-10T09:39:47.520Z,4.60
2018-12-10T09:42:15.828Z,4.60
2018-12-10T09:44:44.261Z,4.60
2018-12-10T09:47:12.686Z,4.60
2018-12-10T09:49:41.140Z,4.60
2018-12-10T09:52:09.460Z,4.60
2018-12-10T09:54:37.893Z,4.60
2018-12-10T09:57:06.318Z,4.70
2018-12-10T09:59:34.714Z,4.70
2018-12-10T10:02:03.263Z,4.70
2018-12-10T10:04:31.703Z,4.70
2018-12-10T10:07:00.099Z,4.70
2018-12-10T10:09:29.300Z,4.80
2018-12-10T10:11:57.702Z,4.80
2018-12-10T10:14:26.283Z,4.80
2018-12-10T10:16:54.634Z,4.90
2018-12-10T10:19:23.042Z,4.90
2018-12-10T10:21:51.405Z,4.90
2018-12-10T10:24:19.753Z,4.90
2018-12-10T10:26:47.985Z,4.90
2018-12-10T10:29:16.250Z,4.90
2018-12-10T10:31:44.552Z,4.90
2018-12-10T10:34:12.929Z,4.90
2018-12-10T10:36:41.191Z,4.80
2018-12-10T10:39:09.792Z,4.80
2018-12-10T10:41:38.138Z,4.80
2018-12-10T10:44:07.018Z,4.80
2018-12-10T10:46:35.755Z,4.80
2018-12-10T10:49:04.631Z,4.90
2018-12-10T10:51:33.194Z,4.90
2018-12-10T10:54:01.474Z,5.00
2018-12-10T10:56:29.872Z,5.10
2018-12-10T10:58:58.644Z,5.10
2018-12-10T11:01:32.428Z,5.20
2018-12-10T11:04:00.771Z,5.20
2018-12-10T11:06:29.284Z,5.20
2018-12-10T11:08:57.530Z,5.20
2018-12-10T11:11:26.094Z,5.20
2018-12-10T11:13:54.437Z,5.30
2018-12-10T11:16:22.772Z,5.30
2018-12-10T11:18:51.100Z,5.40
2018-12-10T11:21:19.569Z,5.40
2018-12-10T11:23:48.053Z,5.30
2018-12-10T11:26:16.289Z,5.20
2018-12-10T11:28:44.525Z,5.20
2018-12-10T11:31:17.157Z,5.20
2018-12-10T11:33:43.342Z,5.10
2018-12-10T11:36:11.790Z,5.10
2018-12-10T11:38:40.084Z,5.10
2018-12-10T11:41:08.328Z,5.10
2018-12-10T11:43:36.731Z,5.10
2018-12-10T11:46:05.140Z,5.00
2018-12-10T11:48:33.405Z,5.10
2018-12-10T11:51:01.874Z,5.10
2018-12-10T11:53:30.350Z,5.10
2018-12-10T11:55:58.718Z,5.00
2018-12-10T11:58:27.051Z,5.00
2018-12-10T12:00:55.368Z,5.00
2018-12-10T12:03:23.663Z,5.00
2018-12-10T12:05:52.233Z,5.00
2018-12-10T12:08:20.510Z,5.00
2018-12-10T12:10:48.786Z,5.00
2018-12-10T12:13:17.102Z,5.00
2018-12-10T12:15:45.339Z,5.00
2018-12-10T12:18:13.559Z,5.00
2018-12-10T12:20:41.977Z,5.00
2018-12-10T12:23:10.320Z,4.90
2018-12-10T12:25:39.480Z,4.90
2018-12-10T12:28:07.902Z,5.00
2018-12-10T12:30:36.274Z,5.00
2018-12-10T12:33:05.020Z,5.00
2018-12-10T12:35:33.265Z,5.00
2018-12-10T12:38:01.557Z,5.00
2018-12-10T12:40:31.173Z,5.00
2018-12-10T12:43:06.785Z,5.00
2018-12-10T12:45:29.817Z,4.90
2018-12-10T12:47:59.563Z,4.80
2018-12-10T12:50:28.182Z,4.80
2018-12-10T12:52:56.434Z,4.80
2018-12-10T12:55:24.832Z,4.90
2018-12-10T12:57:53.094Z,4.90
2018-12-10T13:00:27.094Z,5.00
2018-12-10T13:02:52.208Z,5.00
2018-12-10T13:05:20.505Z,5.10
2018-12-10T13:07:48.713Z,5.10
2018-12-10T13:10:17.060Z,5.00
2018-12-10T13:12:45.732Z,5.00
2018-12-10T13:15:14.220Z,4.90
2018-12-10T13:17:42.459Z,4.90
2018-12-10T13:20:11.806Z,4.60
2018-12-10T13:22:47.108Z,4.60
2018-12-10T13:25:10.445Z,4.40
2018-12-10T13:27:38.786Z,4.40
2018-12-10T13:30:07.175Z,4.40
2018-12-10T13:32:35.476Z,4.40
2018-12-10T13:35:04.113Z,4.40
2018-12-10T13:37:32.457Z,4.40
2018-12-10T13:40:00.840Z,4.50
2018-12-10T13:42:29.160Z,4.50
2018-12-10T13:44:57.501Z,4.50
2018-12-10T13:47:25.816Z,4.50
2018-12-10T13:49:54.196Z,4.60
2018-12-10T13:52:29.330Z,4.60
2018-12-10T13:54:57.659Z,4.60
2018-12-10T13:57:26.056Z,4.60
2018-12-10T13:59:54.502Z,4.60
2018-12-10T14:02:22.932Z,4.60
2018-12-10T14:04:57.027Z,4.60
2018-12-10T14:07:25.381Z,4.60
2018-12-10T14:09:53.730Z,4.60
2018-12-10T14:12:22.342Z,4.60
2018-12-10T14:14:50.953Z,4.60
2018-12-10T14:17:19.342Z,4.60
2018-12-10T14:19:47.640Z,4.60
2018-12-10T14:22:15.967Z,4.60
2018-12-10T14:24:44.345Z,4.60
2018-12-10T14:27:12.733Z,4.50
2018-12-10T14:29:41.079Z,4.50
2018-12-10T14:32:09.502Z,4.60
2018-12-10T14:34:37.734Z,4.50
2018-12-10T14:37:06.047Z,4.50
2018-12-10T14:39:34.714Z,4.50
2018-12-10T14:42:03.058Z,4.50
2018-12-10T14:44:31.528Z,4.60
2018-12-10T14:46:59.900Z,4.50
2018-12-10T14:49:28.272Z,4.50
2018-12-10T14:51:56.673Z,4.50
2018-12-10T14:54:24.999Z,4.50
2018-12-10T14:56:53.996Z,4.50
2018-12-10T14:59:22.370Z,4.50
2018-12-10T15:01:50.736Z,4.40
2018-12-10T15:04:19.048Z,4.40
2018-12-10T15:06:47.311Z,4.40
2018-12-10T15:09:15.562Z,4.40
2018-12-10T15:11:43.971Z,4.40
2018-12-10T15:14:12.571Z,4.40
2018-12-10T15:16:40.863Z,4.40
2018-12-10T15:19:09.203Z,4.30
2018-12-10T15:21:38.104Z,4.30
2018-12-10T15:24:06.433Z,4.30
2018-12-10T15:26:34.855Z,4.30
2018-12-10T15:29:03.617Z,4.30
2018-12-10T15:31:31.957Z,4.20
2018-12-10T15:34:00.377Z,4.20
2018-12-10T15:36:28.670Z,4.20
2018-12-10T15:38:57.104Z,4.10
2018-12-10T15:41:25.752Z,4.10
2018-12-10T15:43:53.958Z,4.10
2018-12-10T15:46:22.275Z,4.10
2018-12-10T15:48:50.721Z,4.10
2018-12-10T15:51:19.018Z,4.00
2018-12-10T15:53:47.466Z,4.00
2018-12-10T15:56:16.029Z,4.00
2018-12-10T15:58:44.263Z,4.00
2018-12-10T16:01:12.589Z,4.00
2018-12-10T16:03:41.018Z,4.00
2018-12-10T16:06:09.269Z,4.10
2018-12-10T16:08:37.590Z,4.10
2018-12-10T16:11:05.928Z,4.10
2018-12-10T16:13:34.097Z,4.20
2018-12-10T16:16:02.362Z,4.10
2018-12-10T16:18:30.586Z,4.10
2018-12-10T16:20:59.179Z,4.10
2018-12-10T16:23:27.811Z,4.10
2018-12-10T16:25:56.248Z,4.10
2018-12-10T16:28:24.874Z,4.10
2018-12-10T16:30:53.472Z,4.10
2018-12-10T16:33:21.834Z,4.10
2018-12-10T16:35:50.674Z,4.00
2018-12-10T16:38:19.132Z,4.00
2018-12-10T16:40:47.474Z,4.00
2018-12-10T16:43:15.891Z,3.90
2018-12-10T16:45:44.218Z,3.90
2018-12-10T16:48:12.479Z,3.90
2018-12-10T16:50:40.930Z,3.90
2018-12-10T16:53:09.614Z,3.90
2018-12-10T16:55:37.935Z,3.90
2018-12-10T16:58:06.179Z,4.00
2018-12-10T17:00:34.560Z,3.90
2018-12-10T17:03:02.939Z,3.90
2018-12-10T17:05:31.333Z,3.90
2018-12-10T17:07:59.662Z,3.80
2018-12-10T17:10:27.911Z,3.80
2018-12-10T17:12:56.235Z,3.80
2018-12-10T17:15:24.534Z,3.80
2018-12-10T17:17:52.865Z,3.70
2018-12-10T17:20:21.213Z,3.70
2018-12-10T17:22:49.583Z,3.60
2018-12-10T17:25:17.875Z,3.60
2018-12-10T17:27:47.565Z,3.60
2018-12-10T17:30:15.988Z,3.60
2018-12-10T17:32:44.322Z,3.60
2018-12-10T17:35:12.781Z,3.50
2018-12-10T17:37:41.179Z,3.50
2018-12-10T17:40:09.790Z,3.50
2018-12-10T17:42:38.206Z,3.50
2018-12-10T17:45:08.157Z,3.50
2018-12-10T17:47:36.553Z,3.50
2018-12-10T17:50:06.800Z,3.60
2018-12-10T17:52:36.225Z,3.60
2018-12-10T17:55:05.679Z,3.60
2018-12-10T17:57:33.977Z,3.60
2018-12-10T18:00:02.178Z,3.50
2018-12-10T18:02:30.461Z,3.50
2018-12-10T18:04:59.302Z,3.50
2018-12-10T18:07:28.573Z,3.50
2018-12-10T18:09:56.815Z,3.40
2018-12-10T18:12:25.786Z,3.30
2018-12-10T18:14:54.081Z,3.30
2018-12-10T18:17:22.580Z,3.30
2018-12-10T18:19:50.864Z,3.30
2018-12-10T18:22:19.178Z,3.30
2018-12-10T18:24:47.478Z,3.40
2018-12-10T18:27:15.776Z,3.40
2018-12-10T18:29:44.064Z,3.40
2018-12-10T18:32:12.526Z,3.40
2018-12-10T18:34:40.780Z,3.40
2018-12-10T18:37:09.102Z,3.40
2018-12-10T18:39:37.569Z,3.40
2018-12-10T18:42:06.288Z,3.40
2018-12-10T18:44:34.706Z,3.40
2018-12-10T18:47:03.458Z,3.50
2018-12-10T18:49:31.796Z,3.50
2018-12-10T18:52:00.050Z,3.50
2018-12-10T18:54:28.312Z,3.50
2018-12-10T18:56:56.509Z,3.50
2018-12-10T18:59:24.951Z,3.50
2018-12-10T19:01:53.639Z,3.40
2018-12-10T19:04:22.025Z,3.40
2018-12-10T19:06:50.399Z,3.50
2018-12-10T19:09:18.952Z,3.50
2018-12-10T19:11:47.429Z,3.50
2018-12-10T19:14:19.176Z,3.50
2018-12-10T19:16:47.896Z,3.50
2018-12-10T19:19:16.189Z,3.50
2018-12-10T19:21:44.524Z,3.50
2018-12-10T19:24:13.168Z,3.50
2018-12-10T19:26:42.001Z,3.50
2018-12-10T19:29:10.257Z,3.40
2018-12-10T19:31:39.014Z,3.40
2018-12-10T19:34:08.456Z,3.40
2018-12-10T19:36:36.656Z,3.40
2018-12-10T19:39:06.761Z,3.40
2018-12-10T19:41:35.214Z,3.40
2018-12-10T19:44:03.656Z,3.40
2018-12-10T19:46:32.152Z,3.40
2018-12-10T19:49:00.476Z,3.40
2018-12-10T19:51:28.758Z,3.40
2018-12-10T19:53:57.060Z,3.40
2018-12-10T19:56:25.593Z,3.40
2018-12-10T19:58:54.811Z,3.40
2018-12-10T20:01:23.151Z,3.40
2018-12-10T20:03:51.659Z,3.50
2018-12-10T20:06:26.347Z,3.40
2018-12-10T20:08:54.791Z,3.40
2018-12-10T20:11:23.457Z,3.40
2018-12-10T20:13:51.746Z,3.30
2018-12-10T20:16:20.149Z,3.30
2018-12-10T20:18:48.451Z,3.30
2018-12-10T20:21:16.818Z,3.30
2018-12-10T20:23:45.162Z,3.30
2018-12-10T20:26:13.577Z,3.40
2018-12-10T20:28:41.961Z,3.30
2018-12-10T20:31:10.412Z,3.40
2018-12-10T20:33:38.670Z,3.40
2018-12-10T20:36:07.137Z,3.40
2018-12-10T20:38:35.704Z,3.40
2018-12-10T20:41:04.107Z,3.50
2018-12-10T20:43:33.100Z,3.50
2018-12-10T20:46:02.118Z,3.40
2018-12-10T20:48:30.399Z,3.40
2018-12-10T20:50:58.718Z,3.40
2018-12-10T20:53:27.040Z,3.40
2018-12-10T20:55:55.389Z,3.40
2018-12-10T20:58:23.762Z,3.50
2018-12-10T21:00:52.059Z,3.50
2018-12-10T21:03:20.420Z,3.50
2018-12-10T21:05:54.271Z,3.50
2018-12-10T21:08:22.540Z,3.50
2018-12-10T21:10:51.974Z,3.50
2018-12-10T21:13:20.304Z,3.60
2018-12-10T21:15:48.597Z,3.60
2018-12-10T21:18:16.959Z,3.70
2018-12-10T21:20:45.170Z,3.70
2018-12-10T21:23:13.557Z,3.70
2018-12-10T21:25:41.818Z,3.60
2018-12-10T21:28:10.166Z,3.70
2018-12-10T21:30:38.468Z,3.70
2018-12-10T21:33:06.693Z,3.70
2018-12-10T21:35:35.140Z,3.70
2018-12-10T21:38:03.798Z,3.70
2018-12-10T21:40:32.101Z,3.70
2018-12-10T21:43:00.457Z,3.70
2018-12-10T21:45:28.740Z,3.60
2018-12-10T21:47:57.114Z,3.60
2018-12-10T21:50:25.379Z,3.60
2018-12-10T21:52:53.679Z,3.60
2018-12-10T21:55:21.995Z,3.50
2018-12-10T21:57:50.339Z,3.50
2018-12-10T22:00:18.846Z,3.50
2018-12-10T22:02:48.146Z,3.50
2018-12-10T22:05:16.634Z,3.50
2018-12-10T22:07:44.913Z,3.50
2018-12-10T22:10:13.164Z,3.40
2018-12-10T22:12:47.892Z,3.40
2018-12-10T22:15:16.273Z,3.40
2018-12-10T22:17:44.535Z,3.30
2018-12-10T22:20:12.768Z,3.30
2018-12-10T22:22:41.019Z,3.30
2018-12-10T22:25:09.293Z,3.30
2018-12-10T22:27:37.600Z,3.30
2018-12-10T22:30:06.624Z,3.30
2018-12-10T22:32:34.910Z,3.40
2018-12-10T22:35:03.910Z,3.40
2018-12-10T22:37:32.534Z,3.40
2018-12-10T22:40:00.859Z,3.40
2018-12-10T22:42:29.168Z,3.50
2018-12-10T22:44:57.458Z,3.50
2018-12-10T22:47:25.770Z,3.50
2018-12-10T22:49:53.963Z,3.50
2018-12-10T22:52:22.273Z,3.50
2018-12-10T22:54:50.504Z,3.60
2018-12-10T22:57:18.837Z,3.60
2018-12-10T22:59:47.206Z,3.60
2018-12-10T23:02:15.546Z,3.60
2018-12-10T23:04:43.758Z,3.50
2018-12-10T23:07:12.030Z,3.50
2018-12-10T23:09:40.323Z,3.50
2018-12-10T23:12:08.532Z,3.60
2018-12-10T23:14:36.849Z,3.60
2018-12-10T23:17:06.589Z,3.60
2018-12-10T23:19:35.049Z,3.60
2018-12-10T23:22:03.267Z,3.60
2018-12-10T23:24:31.519Z,3.60
2018-12-10T23:26:59.894Z,3.60
2018-12-10T23:29:28.139Z,3.60
2018-12-10T23:31:56.514Z,3.70
2018-12-10T23:34:25.217Z,3.70
2018-12-10T23:36:54.068Z,3.70
2018-12-10T23:39:22.294Z,3.70
2018-12-10T23:41:50.627Z,3.70
2018-12-10T23:44:24.469Z,3.70
2018-12-10T23:46:52.808Z,3.70
2018-12-10T23:49:24.495Z,3.70
2018-12-10T23:51:52.918Z,3.70
2018-12-10T23:54:21.136Z,3.70
2018-12-10T23:56:49.509Z,3.70
2018-12-10T23:59:17.828Z,3.70
